createdAt,value
2022-12-17T00:00:07.085Z,114.90
2022-12-17T00:02:33.721Z,111.30
2022-12-17T00:05:02.071Z,107.20
2022-12-17T00:07:28.578Z,103.30
2022-12-17T00:09:58.315Z,105.60
2022-12-17T00:12:24.789Z,112.00
2022-12-17T00:14:51.290Z,119.20
2022-12-17T00:17:18.449Z,128.20
2022-12-17T00:19:44.892Z,122.40
2022-12-17T00:22:11.425Z,110.70
2022-12-17T00:24:37.866Z,110.60
2022-12-17T00:27:04.409Z,107.70
2022-12-17T00:29:30.947Z,94.30
2022-12-17T00:31:57.916Z,95.40
2022-12-17T00:34:24.469Z,86.90
2022-12-17T00:36:51.287Z,84.20
2022-12-17T00:39:17.934Z,91.40
2022-12-17T00:41:44.316Z,86.00
2022-12-17T00:44:10.940Z,80.90
2022-12-17T00:46:37.365Z,83.50
2022-12-17T00:49:03.937Z,87.60
2022-12-17T00:51:30.717Z,84.50
2022-12-17T00:53:57.211Z,85.70
2022-12-17T00:56:23.610Z,80.20
2022-12-17T00:58:50.107Z,81.70
2022-12-17T01:01:16.663Z,91.80
2022-12-17T01:03:43.325Z,89.70
2022-12-17T01:06:10.010Z,86.10
2022-12-17T01:08:36.442Z,83.70
2022-12-17T01:11:05.887Z,84.70
2022-12-17T01:13:32.324Z,82.20
2022-12-17T01:16:03.928Z,85.90
2022-12-17T01:18:30.473Z,80.00
2022-12-17T01:20:57.405Z,86.90
2022-12-17T01:23:23.939Z,87.50
2022-12-17T01:25:54.377Z,84.00
2022-12-17T01:28:24.390Z,82.40
2022-12-17T01:30:51.033Z,89.20
2022-12-17T01:33:17.437Z,92.10
2022-12-17T01:35:43.972Z,88.90
2022-12-17T01:38:15.580Z,87.60
2022-12-17T01:40:41.990Z,87.90
2022-12-17T01:43:13.047Z,86.10
2022-12-17T01:45:45.309Z,78.70
2022-12-17T01:48:16.875Z,89.50
2022-12-17T01:50:50.176Z,88.00
2022-12-17T01:53:22.143Z,87.10
2022-12-17T01:55:49.395Z,84.50
2022-12-17T01:58:16.143Z,82.00
2022-12-17T02:00:42.765Z,91.60
2022-12-17T02:03:17.140Z,83.50
2022-12-17T02:05:48.976Z,87.00
2022-12-17T02:08:34.131Z,83.80
2022-12-17T02:11:11.546Z,83.50
2022-12-17T02:13:42.699Z,81.10
2022-12-17T02:16:14.037Z,80.10
2022-12-17T02:18:49.079Z,86.90
2022-12-17T02:21:15.589Z,91.60
2022-12-17T02:23:59.277Z,87.90
2022-12-17T02:26:36.791Z,92.40
2022-12-17T02:29:06.781Z,92.10
2022-12-17T02:31:40.853Z,96.90
2022-12-17T02:34:07.382Z,91.70
2022-12-17T02:36:35.434Z,85.50
2022-12-17T02:39:02.067Z,88.90
2022-12-17T02:41:39.253Z,87.30
2022-12-17T02:44:07.844Z,83.60
2022-12-17T02:46:34.981Z,87.00
2022-12-17T02:49:01.433Z,85.00
2022-12-17T02:51:28.590Z,82.10
2022-12-17T02:53:55.027Z,84.70
2022-12-17T02:56:22.842Z,84.00
2022-12-17T02:58:49.321Z,81.50
2022-12-17T03:01:16.530Z,87.90
2022-12-17T03:03:48.676Z,88.00
2022-12-17T03:06:16.784Z,83.90
2022-12-17T03:08:43.283Z,78.50
2022-12-17T03:11:09.730Z,90.10
2022-12-17T03:13:36.478Z,79.80
2022-12-17T03:16:17.680Z,90.40
2022-12-17T03:18:44.182Z,83.00
2022-12-17T03:21:10.722Z,88.80
2022-12-17T03:23:37.314Z,91.50
2022-12-17T03:26:07.390Z,90.80
2022-12-17T03:28:33.930Z,85.20
2022-12-17T03:31:01.135Z,91.80
2022-12-17T03:33:30.900Z,97.10
2022-12-17T03:35:57.289Z,90.60
2022-12-17T03:38:23.756Z,93.80
2022-12-17T03:40:51.034Z,89.10
2022-12-17T03:43:17.573Z,94.60
2022-12-17T03:45:52.164Z,98.20
2022-12-17T03:48:18.848Z,97.00
2022-12-17T03:50:45.240Z,105.10
2022-12-17T03:53:11.709Z,111.00
2022-12-17T03:55:38.322Z,108.40
2022-12-17T03:58:04.803Z,103.50
2022-12-17T04:00:31.346Z,112.30
2022-12-17T04:02:58.108Z,113.90
2022-12-17T04:05:24.731Z,98.10
2022-12-17T04:07:51.693Z,103.90
2022-12-17T04:10:18.194Z,99.90
2022-12-17T04:12:44.665Z,109.40
2022-12-17T04:15:11.288Z,113.20
2022-12-17T04:17:37.676Z,108.90
2022-12-17T04:20:05.176Z,111.30
2022-12-17T04:22:31.629Z,107.30
2022-12-17T04:24:58.069Z,103.60
2022-12-17T04:27:24.615Z,97.70
2022-12-17T04:29:51.156Z,107.00
2022-12-17T04:32:17.592Z,103.10
2022-12-17T04:34:44.018Z,106.10
2022-12-17T04:37:10.572Z,104.00
2022-12-17T04:39:36.981Z,100.80
2022-12-17T04:42:03.645Z,98.90
2022-12-17T04:44:30.100Z,103.60
2022-12-17T04:46:56.639Z,100.70
2022-12-17T04:49:23.078Z,104.50
2022-12-17T04:51:49.619Z,102.00
2022-12-17T04:54:16.161Z,103.80
2022-12-17T04:56:42.640Z,97.80
2022-12-17T04:59:09.138Z,105.80
2022-12-17T05:01:35.652Z,106.10
2022-12-17T05:04:02.474Z,100.90
2022-12-17T05:06:28.998Z,104.90
2022-12-17T05:08:55.605Z,98.40
2022-12-17T05:11:22.961Z,97.60
2022-12-17T05:13:49.602Z,100.80
2022-12-17T05:16:16.082Z,112.70
2022-12-17T05:18:42.762Z,100.50
2022-12-17T05:21:09.431Z,106.70
2022-12-17T05:23:36.239Z,89.90
2022-12-17T05:26:13.907Z,85.90
2022-12-17T05:28:40.423Z,99.20
2022-12-17T05:31:07.046Z,93.70
2022-12-17T05:33:34.055Z,93.80
2022-12-17T05:36:02.088Z,95.60
2022-12-17T05:38:28.739Z,85.50
2022-12-17T05:40:59.344Z,91.20
2022-12-17T05:43:25.907Z,94.80
2022-12-17T05:45:52.762Z,93.80
2022-12-17T05:48:19.293Z,82.00
2022-12-17T05:50:51.886Z,94.70
2022-12-17T05:53:18.294Z,96.80
2022-12-17T05:55:49.043Z,84.80
2022-12-17T05:58:15.588Z,87.10
2022-12-17T06:00:42.127Z,80.20
2022-12-17T06:03:08.957Z,89.70
2022-12-17T06:05:35.620Z,86.20
2022-12-17T06:08:06.442Z,85.60
2022-12-17T06:10:32.922Z,88.00
2022-12-17T06:12:59.343Z,88.20
2022-12-17T06:15:25.882Z,84.50
2022-12-17T06:17:57.461Z,86.30
2022-12-17T06:23:05.500Z,85.70
2022-12-17T06:28:02.453Z,106.90
2022-12-17T06:30:29.092Z,107.00
2022-12-17T06:33:06.922Z,75.30
2022-12-17T06:35:33.349Z,83.50
2022-12-17T06:38:01.712Z,84.40
2022-12-17T06:40:28.326Z,88.50
2022-12-17T06:42:55.903Z,92.00
2022-12-17T06:45:22.368Z,81.60
2022-12-17T06:47:48.803Z,85.50
2022-12-17T06:50:15.305Z,94.90
2022-12-17T06:52:41.696Z,79.30
2022-12-17T06:55:08.849Z,78.50
2022-12-17T06:57:40.360Z,81.20
2022-12-17T07:00:08.542Z,83.90
2022-12-17T07:02:35.018Z,80.10
2022-12-17T07:05:01.649Z,81.20
2022-12-17T07:07:28.021Z,86.00
2022-12-17T07:09:54.415Z,82.80
2022-12-17T07:12:20.864Z,84.60
2022-12-17T07:14:47.258Z,81.90
2022-12-17T07:17:13.695Z,96.00
2022-12-17T07:19:40.272Z,96.10
2022-12-17T07:22:06.918Z,95.70
2022-12-17T07:24:33.361Z,77.60
2022-12-17T07:26:59.901Z,98.20
2022-12-17T07:29:26.333Z,83.20
2022-12-17T07:31:52.876Z,81.80
2022-12-17T07:34:19.551Z,78.60
2022-12-17T07:36:46.071Z,85.30
2022-12-17T07:39:12.482Z,87.80
2022-12-17T07:41:39.034Z,88.20
2022-12-17T07:44:05.847Z,91.60
2022-12-17T07:46:32.266Z,79.30
2022-12-17T07:48:58.773Z,79.90
2022-12-17T07:51:25.303Z,76.30
2022-12-17T07:53:51.837Z,76.60
2022-12-17T07:56:19.092Z,154.20
2022-12-17T07:58:45.631Z,81.80
2022-12-17T08:01:12.268Z,77.80
2022-12-17T08:03:39.616Z,72.00
2022-12-17T08:06:06.686Z,67.20
2022-12-17T08:08:33.068Z,70.40
2022-12-17T08:10:59.709Z,71.20
2022-12-17T08:13:26.205Z,67.10
2022-12-17T08:15:53.261Z,65.70
2022-12-17T08:18:26.065Z,67.60
2022-12-17T08:20:54.021Z,68.40
2022-12-17T08:23:20.757Z,68.50
2022-12-17T08:25:47.235Z,74.30
2022-12-17T08:28:41.211Z,76.00
2022-12-17T08:31:00.330Z,80.10
2022-12-17T08:33:27.061Z,68.80
2022-12-17T08:35:57.822Z,68.00
2022-12-17T08:38:24.361Z,72.20
2022-12-17T08:40:51.120Z,78.70
2022-12-17T08:43:17.645Z,83.00
2022-12-17T08:45:51.960Z,94.80
2022-12-17T08:48:18.508Z,82.70
2022-12-17T08:50:44.943Z,82.00
2022-12-17T08:53:11.592Z,80.10
2022-12-17T08:55:38.031Z,81.20
2022-12-17T08:58:04.447Z,81.50
2022-12-17T09:00:30.934Z,79.60
2022-12-17T09:03:02.125Z,75.00
2022-12-17T09:05:28.689Z,81.50
2022-12-17T09:08:00.243Z,74.40
2022-12-17T09:12:53.324Z,85.00
2022-12-17T09:15:19.901Z,93.10
2022-12-17T09:17:47.179Z,79.90
2022-12-17T09:20:13.830Z,80.30
2022-12-17T09:22:40.303Z,70.70
2022-12-17T09:25:07.375Z,73.10
2022-12-17T09:27:33.799Z,81.60
2022-12-17T09:30:00.336Z,80.70
2022-12-17T09:32:27.435Z,83.00
2022-12-17T09:34:53.802Z,87.20
2022-12-17T09:37:20.257Z,82.50
2022-12-17T09:39:46.725Z,86.90
2022-12-17T09:42:24.937Z,85.40
2022-12-17T09:44:58.093Z,84.90
2022-12-17T09:47:46.445Z,83.90
2022-12-17T09:50:15.742Z,87.70
2022-12-17T09:52:43.810Z,79.30
2022-12-17T09:55:23.885Z,75.70
2022-12-17T09:57:50.725Z,74.60
2022-12-17T10:00:23.725Z,68.90
2022-12-17T10:02:50.629Z,73.50
2022-12-17T10:05:29.879Z,76.60
2022-12-17T10:07:57.425Z,76.60
2022-12-17T10:10:27.540Z,73.60
2022-12-17T10:12:53.916Z,75.60
2022-12-17T10:15:20.369Z,69.30
2022-12-17T10:17:46.795Z,73.30
2022-12-17T10:20:31.165Z,64.40
2022-12-17T10:22:57.633Z,66.10
2022-12-17T10:25:24.019Z,64.20
2022-12-17T10:27:50.502Z,59.20
2022-12-17T10:30:17.483Z,66.10
2022-12-17T10:32:43.975Z,60.10
2022-12-17T10:35:36.627Z,64.10
2022-12-17T10:38:44.500Z,62.30
2022-12-17T10:41:24.732Z,68.10
2022-12-17T10:43:51.237Z,67.20
2022-12-17T10:46:26.553Z,73.20
2022-12-17T10:49:09.760Z,71.00
2022-12-17T10:51:38.331Z,72.30
2022-12-17T10:54:13.390Z,69.20
2022-12-17T10:56:39.808Z,73.70
2022-12-17T10:59:13.175Z,73.20
2022-12-17T11:01:41.462Z,74.20
2022-12-17T11:04:23.457Z,76.40
2022-12-17T11:09:30.457Z,72.40
2022-12-17T11:11:56.956Z,80.10
2022-12-17T11:14:26.710Z,82.60
2022-12-17T11:17:05.023Z,81.40
2022-12-17T11:19:36.376Z,85.90
2022-12-17T11:22:21.346Z,79.10
2022-12-17T11:25:13.050Z,89.40
2022-12-17T11:27:48.425Z,78.90
2022-12-17T11:30:16.893Z,82.70
2022-12-17T11:33:17.976Z,87.90
2022-12-17T11:35:55.586Z,80.50
2022-12-17T11:38:46.494Z,88.00
2022-12-17T11:41:21.313Z,92.70
2022-12-17T11:44:03.614Z,86.90
2022-12-17T11:46:39.130Z,102.30
2022-12-17T11:49:15.374Z,96.80
2022-12-17T11:52:14.212Z,91.40
2022-12-17T11:54:59.143Z,102.20
2022-12-17T11:57:47.254Z,89.90
2022-12-17T12:00:13.681Z,98.20
2022-12-17T12:03:18.509Z,95.50
2022-12-17T12:05:58.944Z,91.70
2022-12-17T12:08:34.332Z,83.90
2022-12-17T12:11:15.101Z,94.10
2022-12-17T12:14:02.943Z,90.10
2022-12-17T12:16:46.719Z,90.00
2022-12-17T12:19:31.964Z,94.40
2022-12-17T12:22:15.327Z,95.70
2022-12-17T12:24:57.108Z,104.20
2022-12-17T12:30:20.605Z,106.20
2022-12-17T12:33:21.240Z,115.70
2022-12-17T12:35:48.701Z,112.30
2022-12-17T12:38:26.835Z,115.60
2022-12-17T12:41:11.579Z,114.60
2022-12-17T12:43:43.136Z,135.70
2022-12-17T12:48:47.889Z,133.10
2022-12-17T12:51:27.209Z,130.00
2022-12-17T12:54:02.740Z,131.90
2022-12-17T12:56:36.580Z,132.20
2022-12-17T12:59:31.022Z,131.20
2022-12-17T13:01:57.904Z,131.10
2022-12-17T13:04:36.155Z,140.60
2022-12-17T13:07:02.691Z,146.60
2022-12-17T13:09:48.230Z,138.00
2022-12-17T13:12:29.984Z,132.60
2022-12-17T13:15:13.465Z,140.30
2022-12-17T13:17:45.452Z,137.10
2022-12-17T13:20:34.304Z,132.60
2022-12-17T13:23:09.877Z,140.70
2022-12-17T13:25:37.073Z,146.70
2022-12-17T13:28:03.906Z,139.20
2022-12-17T13:30:38.526Z,137.20
2022-12-17T13:33:15.003Z,117.80
2022-12-17T13:36:16.609Z,115.00
2022-12-17T13:39:01.713Z,109.00
2022-12-17T13:41:31.293Z,117.60
2022-12-17T13:44:02.093Z,112.40
2022-12-17T13:46:48.871Z,123.20
2022-12-17T13:49:27.117Z,148.10
2022-12-17T13:52:19.878Z,132.50
2022-12-17T13:54:46.723Z,136.00
2022-12-17T13:57:19.996Z,148.30
2022-12-17T13:59:52.376Z,141.00
2022-12-17T14:02:31.935Z,131.10
2022-12-17T14:05:07.245Z,131.70
2022-12-17T14:07:38.944Z,127.40
2022-12-17T14:10:14.914Z,119.10
2022-12-17T14:12:41.667Z,113.80
2022-12-17T14:15:26.727Z,110.50
2022-12-17T14:17:54.015Z,129.00
2022-12-17T14:20:23.431Z,133.60
2022-12-17T14:22:53.709Z,134.00
2022-12-17T14:25:23.766Z,128.40
2022-12-17T14:28:00.351Z,122.20
2022-12-17T14:30:42.885Z,121.60
2022-12-17T14:33:35.449Z,105.70
2022-12-17T14:36:21.312Z,120.40
2022-12-17T14:38:55.792Z,133.20
2022-12-17T14:41:25.347Z,128.40
2022-12-17T14:43:57.483Z,133.20
2022-12-17T14:46:24.409Z,141.30
2022-12-17T14:48:58.669Z,131.60
2022-12-17T14:51:29.032Z,130.40
2022-12-17T14:54:20.243Z,134.80
2022-12-17T14:56:48.992Z,141.90
2022-12-17T14:59:35.186Z,133.40
2022-12-17T15:02:08.022Z,139.10
2022-12-17T15:04:37.584Z,147.70
2022-12-17T15:07:06.657Z,152.90
2022-12-17T15:09:39.570Z,149.00
2022-12-17T15:12:06.135Z,154.10
2022-12-17T15:14:32.643Z,150.60
2022-12-17T15:16:59.212Z,144.70
2022-12-17T15:19:25.882Z,153.30
2022-12-17T15:21:52.536Z,147.20
2022-12-17T15:24:20.865Z,134.10
2022-12-17T15:26:47.731Z,131.90
2022-12-17T15:29:14.751Z,119.60
2022-12-17T15:31:41.567Z,125.90
2022-12-17T15:34:11.214Z,122.10
2022-12-17T15:36:37.825Z,122.90
2022-12-17T15:39:04.427Z,120.90
2022-12-17T15:41:30.927Z,128.30
2022-12-17T15:43:57.296Z,135.10
2022-12-17T15:46:24.051Z,136.40
2022-12-17T15:48:51.013Z,128.20
2022-12-17T15:51:19.727Z,139.00
2022-12-17T15:53:47.319Z,131.40
2022-12-17T15:56:23.678Z,132.60
2022-12-17T15:58:50.544Z,136.40
2022-12-17T16:01:17.984Z,134.20
2022-12-17T16:03:44.835Z,131.70
2022-12-17T16:06:30.323Z,124.80
2022-12-17T16:09:15.578Z,135.50
2022-12-17T16:11:42.087Z,135.80
2022-12-17T16:14:26.913Z,118.80
2022-12-17T16:16:56.314Z,137.70
2022-12-17T16:19:23.056Z,135.50
2022-12-17T16:21:49.599Z,146.40
2022-12-17T16:24:16.339Z,146.40
2022-12-17T16:26:42.878Z,133.70
2022-12-17T16:29:09.388Z,137.80
2022-12-17T16:31:36.131Z,136.20
2022-12-17T16:34:03.010Z,134.90
2022-12-17T16:36:29.650Z,143.60
2022-12-17T16:38:56.291Z,128.70
2022-12-17T16:41:22.894Z,134.20
2022-12-17T16:43:49.773Z,117.60
2022-12-17T16:46:28.673Z,125.20
2022-12-17T16:48:56.901Z,116.10
2022-12-17T16:51:28.801Z,119.80
2022-12-17T16:53:56.916Z,122.90
2022-12-17T16:56:26.024Z,109.70
2022-12-17T16:58:52.669Z,141.20
2022-12-17T17:01:25.334Z,141.40
2022-12-17T17:03:52.607Z,126.80
2022-12-17T17:06:19.950Z,128.00
2022-12-17T17:08:47.057Z,123.90
2022-12-17T17:11:16.416Z,136.10
2022-12-17T17:13:42.896Z,120.70
2022-12-17T17:16:10.856Z,125.50
2022-12-17T17:18:38.863Z,129.30
2022-12-17T17:21:15.779Z,123.90
2022-12-17T17:23:42.907Z,112.70
2022-12-17T17:26:10.144Z,117.30
2022-12-17T17:28:37.919Z,111.30
2022-12-17T17:31:07.848Z,103.50
2022-12-17T17:33:40.463Z,109.40
2022-12-17T17:36:23.589Z,110.00
2022-12-17T17:38:52.483Z,109.50
2022-12-17T17:41:21.692Z,108.70
2022-12-17T17:44:12.615Z,108.40
2022-12-17T17:46:40.173Z,107.40
2022-12-17T17:49:08.463Z,108.90
2022-12-17T17:52:07.950Z,116.60
2022-12-17T17:54:23.730Z,112.10
2022-12-17T17:56:50.183Z,118.70
2022-12-17T17:59:17.747Z,116.90
2022-12-17T18:01:47.561Z,112.20
2022-12-17T18:04:17.251Z,115.10
2022-12-17T18:07:02.539Z,113.50
2022-12-17T18:09:31.653Z,113.70
2022-12-17T18:11:58.029Z,114.90
2022-12-17T18:14:24.526Z,110.60
2022-12-17T18:16:50.992Z,113.30
2022-12-17T18:19:19.960Z,118.20
2022-12-17T18:21:47.215Z,127.60
2022-12-17T18:24:16.558Z,124.10
2022-12-17T18:26:44.611Z,113.70
2022-12-17T18:29:20.142Z,110.90
2022-12-17T18:31:51.511Z,125.60
2022-12-17T18:34:21.626Z,118.50
2022-12-17T18:36:49.651Z,117.50
2022-12-17T18:39:19.529Z,128.70
2022-12-17T18:41:47.699Z,111.90
2022-12-17T18:44:16.696Z,122.00
2022-12-17T18:46:43.381Z,117.10
2022-12-17T18:49:12.974Z,111.00
2022-12-17T18:51:42.268Z,127.70
2022-12-17T18:54:14.486Z,117.20
2022-12-17T18:57:00.417Z,120.80
2022-12-17T18:59:31.048Z,121.10
2022-12-17T19:01:58.965Z,118.20
2022-12-17T19:04:26.789Z,119.10
2022-12-17T19:06:54.230Z,124.70
2022-12-17T19:09:24.284Z,117.30
2022-12-17T19:11:52.062Z,121.20
2022-12-17T19:14:20.053Z,128.50
2022-12-17T19:16:46.521Z,121.70
2022-12-17T19:19:13.955Z,128.50
2022-12-17T19:21:40.983Z,126.20
2022-12-17T19:24:11.071Z,122.30
2022-12-17T19:26:37.672Z,129.40
2022-12-17T19:29:04.587Z,143.50
2022-12-17T19:31:32.264Z,153.80
2022-12-17T19:34:01.049Z,168.40
2022-12-17T19:36:29.938Z,138.60
2022-12-17T19:38:58.946Z,125.60
2022-12-17T19:41:27.190Z,125.70
2022-12-17T19:43:59.214Z,121.70
2022-12-17T19:46:26.655Z,119.30
2022-12-17T19:48:54.297Z,143.60
2022-12-17T19:51:27.864Z,118.10
2022-12-17T19:53:54.952Z,144.20
2022-12-17T19:56:24.686Z,124.80
2022-12-17T19:58:54.088Z,138.40
2022-12-17T20:01:26.196Z,169.00
2022-12-17T20:03:54.657Z,162.90
2022-12-17T20:06:24.298Z,137.30
2022-12-17T20:08:51.324Z,135.30
2022-12-17T20:11:18.906Z,139.00
2022-12-17T20:13:48.753Z,144.80
2022-12-17T20:16:19.392Z,124.30
2022-12-17T20:18:45.942Z,121.70
2022-12-17T20:21:12.523Z,130.80
2022-12-17T20:23:39.066Z,131.40
2022-12-17T20:26:08.109Z,153.50
2022-12-17T20:28:35.996Z,153.10
2022-12-17T20:31:04.311Z,139.50
2022-12-17T20:33:31.671Z,148.30
2022-12-17T20:36:10.534Z,139.10
2022-12-17T20:38:38.076Z,145.00
2022-12-17T20:41:17.289Z,142.40
2022-12-17T20:43:44.449Z,146.80
2022-12-17T20:46:11.454Z,143.30
2022-12-17T20:48:40.560Z,131.80
2022-12-17T20:51:15.952Z,130.80
2022-12-17T20:53:43.617Z,146.50
2022-12-17T20:56:13.813Z,133.20
2022-12-17T20:58:41.584Z,138.70
2022-12-17T21:01:17.957Z,158.40
2022-12-17T21:03:45.526Z,155.00
2022-12-17T21:06:17.617Z,159.70
2022-12-17T21:08:49.671Z,158.70
2022-12-17T21:11:18.665Z,146.50
2022-12-17T21:13:45.839Z,142.40
2022-12-17T21:16:19.266Z,151.80
2022-12-17T21:18:46.199Z,141.80
2022-12-17T21:21:15.856Z,140.30
2022-12-17T21:23:42.768Z,133.30
2022-12-17T21:26:13.597Z,130.30
2022-12-17T21:28:41.633Z,106.80
2022-12-17T21:31:19.732Z,145.80
2022-12-17T21:33:47.533Z,141.50
2022-12-17T21:36:15.507Z,140.30
2022-12-17T21:38:42.705Z,138.40
2022-12-17T21:41:14.647Z,140.70
2022-12-17T21:43:41.594Z,136.20
2022-12-17T21:46:10.338Z,152.10
2022-12-17T21:48:41.941Z,134.60
2022-12-17T21:51:11.667Z,163.10
2022-12-17T21:53:39.224Z,133.80
2022-12-17T21:56:11.006Z,146.80
2022-12-17T21:58:38.222Z,153.40
2022-12-17T22:01:09.523Z,144.90
2022-12-17T22:03:44.457Z,140.10
2022-12-17T22:06:14.290Z,150.30
2022-12-17T22:08:42.319Z,160.60
2022-12-17T22:11:10.911Z,164.60
2022-12-17T22:13:39.401Z,171.50
2022-12-17T22:16:06.822Z,163.80
2022-12-17T22:18:33.384Z,172.70
2022-12-17T22:21:01.054Z,175.10
2022-12-17T22:23:27.621Z,167.80
2022-12-17T22:25:54.422Z,162.20
2022-12-17T22:28:20.874Z,165.80
2022-12-17T22:30:47.332Z,170.50
2022-12-17T22:34:02.257Z,168.60
2022-12-17T22:38:11.315Z,162.90
2022-12-17T22:42:58.188Z,164.50
2022-12-17T22:44:35.014Z,178.80
2022-12-17T22:44:45.404Z,180.00
2022-12-17T22:47:08.237Z,189.90
2022-12-17T22:49:34.778Z,180.20
2022-12-17T22:52:01.210Z,194.40
2022-12-17T22:54:27.839Z,186.90
2022-12-17T22:57:31.239Z,184.60
2022-12-17T22:59:41.217Z,194.50
2022-12-17T23:02:07.901Z,197.50
2022-12-17T23:04:34.855Z,205.20
2022-12-17T23:07:01.345Z,197.80
2022-12-17T23:09:28.136Z,192.40
2022-12-17T23:11:54.631Z,197.20
2022-12-17T23:14:21.189Z,176.80
2022-12-17T23:16:47.705Z,189.70
2022-12-17T23:19:14.264Z,196.80
2022-12-17T23:21:40.867Z,193.10
2022-12-17T23:24:07.997Z,195.50
2022-12-17T23:26:36.313Z,180.00
2022-12-17T23:29:09.118Z,187.50
2022-12-17T23:31:38.431Z,183.70
2022-12-17T23:34:05.860Z,194.00
2022-12-17T23:36:33.139Z,189.80
2022-12-17T23:38:59.866Z,178.70
2022-12-17T23:41:28.865Z,170.80
2022-12-17T23:43:56.257Z,178.30
2022-12-17T23:46:24.784Z,169.00
2022-12-17T23:48:51.575Z,164.50
2022-12-17T23:51:19.882Z,157.20
2022-12-17T23:53:46.587Z,164.60
2022-12-17T23:56:15.805Z,158.30
2022-12-17T23:58:44.408Z,163.10
